Time;durP1;ratioP1;P1;durP2;ratioP2;P2;SDS_P1;SDS_P2;PMS_P1;PMS_P2;Temp;Humidity;BMP_temperature;BMP_pressure;BME280_temperature;BME280_humidity;BME280_pressure;Samples;Min_cycle;Max_cycle;Signal;HPM_P1;HPM_P2
2021/01/21 00:00:00;;;;;;;0.63;0.47;;;9.90;99.90;;;;;;5019100;28;20030;-70
2021/01/21 00:02:26;;;;;;;1.63;0.33;;;9.90;99.90;;;;;;5018047;28;20033;-70
2021/01/21 00:04:52;;;;;;;0.33;0.20;;;10.00;99.90;;;;;;5018183;28;20040;-69
2021/01/21 00:07:18;;;;;;;0.10;0.10;;;10.00;99.90;;;;;;5023625;28;20029;-69
2021/01/21 00:09:44;;;;;;;0.30;0.30;;;10.00;99.90;;;;;;5012707;28;20060;-69
2021/01/21 00:12:09;;;;;;;0.10;0.10;;;10.10;99.90;;;;;;5014134;28;20035;-70
2021/01/21 00:14:35;;;;;;;0.45;0.45;;;10.00;99.90;;;;;;5015592;28;20068;-69
2021/01/21 00:17:01;;;;;;;0.10;0.10;;;10.00;99.90;;;;;;5016632;28;20153;-69
2021/01/21 00:19:26;;;;;;;1.25;0.47;;;10.00;99.90;;;;;;5013422;28;20101;-69
2021/01/21 00:21:52;;;;;;;1.80;0.27;;;10.00;99.90;;;;;;5011787;28;20105;-70
2021/01/21 00:24:18;;;;;;;0.63;0.63;;;10.00;99.90;;;;;;5008501;28;20424;-70
2021/01/21 00:26:44;;;;;;;0.40;0.40;;;10.00;99.90;;;;;;5011658;28;20064;-69
2021/01/21 00:29:10;;;;;;;0.70;0.55;;;10.00;99.90;;;;;;5006994;28;20023;-69
2021/01/21 00:31:36;;;;;;;0.20;0.20;;;10.00;99.90;;;;;;5018844;28;20109;-69
2021/01/21 00:34:02;;;;;;;0.20;0.20;;;10.00;99.90;;;;;;5020509;28;20030;-70
2021/01/21 00:36:27;;;;;;;0.03;0.03;;;10.10;99.90;;;;;;5011814;28;20404;-69
2021/01/21 00:38:53;;;;;;;0.08;0.08;;;10.10;99.90;;;;;;5011326;28;20069;-70
2021/01/21 00:41:19;;;;;;;0.20;0.13;;;10.20;99.90;;;;;;5009872;28;20080;-69
2021/01/21 00:43:45;;;;;;;0.20;0.20;;;10.20;99.90;;;;;;5026502;28;20034;-70
2021/01/21 00:46:10;;;;;;;0.93;0.70;;;10.20;99.90;;;;;;5021841;28;20403;-70
2021/01/21 00:48:36;;;;;;;0.20;0.15;;;10.20;99.90;;;;;;5021010;28;20106;-70
2021/01/21 00:51:02;;;;;;;0.10;0.10;;;10.20;99.90;;;;;;5009687;28;20038;-70
2021/01/21 00:53:28;;;;;;;0.00;0.00;;;10.20;99.90;;;;;;5016748;28;20030;-69
2021/01/21 00:55:53;;;;;;;0.25;0.25;;;10.20;99.90;;;;;;5009596;28;20021;-70
2021/01/21 00:58:19;;;;;;;1.40;1.17;;;10.20;99.90;;;;;;5027657;28;20035;-70
2021/01/21 01:00:45;;;;;;;0.33;0.33;;;10.30;99.90;;;;;;5023945;28;20054;-69
2021/01/21 01:03:10;;;;;;;10.10;0.90;;;10.30;99.90;;;;;;5021815;28;20032;-71
2021/01/21 01:05:36;;;;;;;0.00;0.00;;;10.30;99.90;;;;;;5023908;28;20444;-69
2021/01/21 01:08:02;;;;;;;0.73;0.30;;;10.20;99.90;;;;;;5030415;28;20034;-70
2021/01/21 01:10:28;;;;;;;0.20;0.17;;;10.00;99.90;;;;;;5021605;28;20156;-70
2021/01/21 01:12:54;;;;;;;0.05;0.05;;;9.90;99.90;;;;;;5015215;28;20029;-70
2021/01/21 01:15:26;;;;;;;10.47;0.63;;;9.80;99.90;;;;;;5025263;28;20026;-71
2021/01/21 01:17:51;;;;;;;0.28;0.28;;;9.60;99.90;;;;;;5027658;28;20025;-69
2021/01/21 01:20:17;;;;;;;0.23;0.23;;;9.50;99.90;;;;;;5009970;28;20038;-68
2021/01/21 01:22:49;;;;;;;0.10;0.10;;;9.40;99.90;;;;;;5006994;28;20099;-71
2021/01/21 01:25:14;;;;;;;0.30;0.30;;;9.30;99.90;;;;;;5004218;28;20557;-69
2021/01/21 01:27:41;;;;;;;0.10;0.10;;;9.20;99.90;;;;;;5021776;28;20026;-68
2021/01/21 01:30:12;;;;;;;0.22;0.22;;;9.20;99.90;;;;;;5012708;28;20035;-70
2021/01/21 01:32:38;;;;;;;0.70;0.40;;;9.20;99.90;;;;;;5021113;28;20317;-69
2021/01/21 01:35:05;;;;;;;0.73;0.60;;;9.20;99.90;;;;;;5016478;28;20033;-69
2021/01/21 01:37:30;;;;;;;;;;;9.20;99.90;;;;;;5007715;28;20026;-68
2021/01/21 01:39:56;;;;;;;2.37;0.97;;;9.20;99.90;;;;;;5012720;28;19920;-69
2021/01/21 01:42:22;;;;;;;0.20;0.20;;;9.20;99.90;;;;;;5016273;28;20034;-70
2021/01/21 01:44:47;;;;;;;0.40;0.32;;;9.20;99.90;;;;;;5014466;28;20108;-70
2021/01/21 01:47:16;;;;;;;1.05;0.65;;;9.20;99.90;;;;;;5010118;28;20060;-70
2021/01/21 01:49:44;;;;;;;0.35;0.25;;;9.20;99.90;;;;;;5011827;28;20042;-70
2021/01/21 01:52:10;;;;;;;0.30;0.30;;;9.20;99.90;;;;;;5014939;28;20056;-70
2021/01/21 01:54:36;;;;;;;0.20;0.20;;;9.20;99.90;;;;;;4981910;28;20413;-70
2021/01/21 01:57:02;;;;;;;0.20;0.20;;;9.30;99.90;;;;;;5016342;28;20026;-70
2021/01/21 01:59:34;;;;;;;0.52;0.40;;;9.40;99.90;;;;;;5013054;28;20377;-70
2021/01/21 02:02:00;;;;;;;0.55;0.30;;;9.40;99.90;;;;;;5015109;28;20034;-70
2021/01/21 02:04:26;;;;;;;2.30;0.60;;;9.40;99.90;;;;;;5015802;28;20025;-70
2021/01/21 02:06:52;;;;;;;1.43;0.87;;;9.30;99.90;;;;;;5001555;28;20117;-70
2021/01/21 02:09:19;;;;;;;0.32;0.32;;;9.30;99.90;;;;;;5013156;28;20026;-70
2021/01/21 02:12:08;;;;;;;0.17;0.13;;;9.30;99.90;;;;;;5015680;28;20030;-70
2021/01/21 02:15:02;;;;;;;0.47;0.10;;;9.30;99.90;;;;;;5012857;28;20056;-70
2021/01/21 02:17:49;;;;;;;0.38;0.38;;;9.30;99.90;;;;;;5002660;28;20116;-70
2021/01/21 02:20:34;;;;;;;0.00;0.00;;;9.30;99.90;;;;;;5007688;28;20030;-71
2021/01/21 02:23:18;;;;;;;0.00;0.00;;;9.40;99.90;;;;;;5008502;28;20357;-71
2021/01/21 02:25:50;;;;;;;0.30;0.30;;;9.40;99.90;;;;;;4999559;28;20050;-71
2021/01/21 02:28:31;;;;;;;0.30;0.30;;;9.50;99.90;;;;;;5009551;28;20030;-72
2021/01/21 02:31:02;;;;;;;0.45;0.45;;;9.60;99.90;;;;;;5000272;28;20057;-72
2021/01/21 02:34:16;;;;;;;1.48;0.08;;;9.60;99.90;;;;;;5013075;28;20409;-72
2021/01/21 02:36:50;;;;;;;0.10;0.10;;;9.80;99.90;;;;;;5001876;28;20066;-70
2021/01/21 02:39:19;;;;;;;0.43;0.35;;;9.80;99.90;;;;;;5006590;28;20022;-71
2021/01/21 02:41:44;;;;;;;0.75;0.43;;;9.80;99.90;;;;;;5009573;28;20034;-71
2021/01/21 02:44:10;;;;;;;0.50;0.50;;;9.90;99.90;;;;;;5007171;28;20030;-71
2021/01/21 02:46:36;;;;;;;0.20;0.20;;;9.90;99.90;;;;;;5015239;28;20146;-70
2021/01/21 02:49:02;;;;;;;0.20;0.20;;;10.00;99.90;;;;;;5017884;28;20380;-71
2021/01/21 02:51:30;;;;;;;0.10;0.10;;;10.00;99.90;;;;;;5011542;28;20026;-70
2021/01/21 02:54:33;;;;;;;0.00;0.00;;;10.00;99.90;;;;;;5001422;28;20484;-71
2021/01/21 02:57:06;;;;;;;1.00;0.17;;;10.00;99.90;;;;;;5018246;28;20511;-70
2021/01/21 02:59:38;;;;;;;0.57;0.30;;;10.10;99.90;;;;;;5031373;28;20072;-70
2021/01/21 03:02:09;;;;;;;0.38;0.38;;;10.00;99.90;;;;;;5007162;28;20030;-70
2021/01/21 03:04:39;;;;;;;0.65;0.17;;;10.00;99.90;;;;;;5015647;28;20022;-70
2021/01/21 03:07:09;;;;;;;0.20;0.20;;;9.90;99.90;;;;;;4999918;28;20359;-70
2021/01/21 03:09:36;;;;;;;5.32;0.82;;;9.80;99.90;;;;;;5014929;28;20152;-71
2021/01/21 03:12:24;;;;;;;0.50;0.50;;;9.80;99.90;;;;;;5024907;28;20121;-71
2021/01/21 03:14:53;;;;;;;0.10;0.10;;;9.70;99.90;;;;;;5005064;28;20026;-70
2021/01/21 03:17:21;;;;;;;0.03;0.03;;;9.60;99.90;;;;;;5020055;28;20037;-70
2021/01/21 03:19:46;;;;;;;0.35;0.28;;;9.50;99.90;;;;;;5009545;28;20030;-71
2021/01/21 03:22:12;;;;;;;0.10;0.10;;;9.50;99.90;;;;;;5002310;28;20045;-70
2021/01/21 03:24:38;;;;;;;0.68;0.68;;;9.40;99.90;;;;;;5011581;28;20030;-69
2021/01/21 03:27:04;;;;;;;0.10;0.10;;;9.40;99.90;;;;;;5016985;28;20404;-69
2021/01/21 03:29:30;;;;;;;0.08;0.08;;;9.40;99.90;;;;;;5025041;28;20316;-70
2021/01/21 03:31:55;;;;;;;0.10;0.10;;;9.30;99.90;;;;;;5018517;28;20110;-70
2021/01/21 03:34:21;;;;;;;0.10;0.10;;;9.30;99.90;;;;;;5013529;28;20034;-70
2021/01/21 03:36:47;;;;;;;1.25;0.40;;;9.30;99.90;;;;;;5013755;28;20034;-70
2021/01/21 03:39:13;;;;;;;11.82;0.63;;;9.20;99.90;;;;;;5013280;28;20030;-70
2021/01/21 03:41:39;;;;;;;0.38;0.38;;;9.20;99.90;;;;;;5014795;28;20028;-70
2021/01/21 03:44:05;;;;;;;0.00;0.00;;;9.10;99.90;;;;;;5006293;28;20113;-70
2021/01/21 03:46:31;;;;;;;4.50;1.08;;;9.00;99.90;;;;;;5000412;28;20038;-71
2021/01/21 03:48:57;;;;;;;0.05;0.05;;;8.60;99.90;;;;;;5000316;28;20061;-69
2021/01/21 03:51:22;;;;;;;1.45;0.98;;;8.10;99.90;;;;;;5010436;28;20057;-68
2021/01/21 03:53:48;;;;;;;3.35;0.80;;;7.70;99.90;;;;;;5020540;28;20029;-69
2021/01/21 03:56:14;;;;;;;0.20;0.20;;;7.50;99.90;;;;;;5019980;28;20029;-69
2021/01/21 03:58:39;;;;;;;0.10;0.10;;;7.30;99.90;;;;;;5003719;28;20026;-69
2021/01/21 04:01:05;;;;;;;0.30;0.30;;;7.20;99.90;;;;;;5024768;28;20030;-69
2021/01/21 04:03:32;;;;;;;0.03;0.03;;;7.10;99.90;;;;;;5019870;28;20057;-70
2021/01/21 04:06:01;;;;;;;2.63;0.28;;;7.00;99.90;;;;;;5011322;28;20030;-69
2021/01/21 04:08:27;;;;;;;0.60;0.45;;;7.00;99.90;;;;;;5013458;28;20061;-69
2021/01/21 04:10:53;;;;;;;0.10;0.10;;;7.00;99.90;;;;;;5011798;28;20437;-69
2021/01/21 04:13:19;;;;;;;0.93;0.10;;;6.90;99.90;;;;;;5012192;28;20042;-69
2021/01/21 04:15:46;;;;;;;0.47;0.20;;;6.90;99.90;;;;;;4995177;28;20439;-69
2021/01/21 04:18:12;;;;;;;0.10;0.10;;;6.90;99.90;;;;;;4997547;28;20457;-68
2021/01/21 04:20:38;;;;;;;0.15;0.15;;;6.80;99.90;;;;;;5001056;28;20417;-69
2021/01/21 04:23:04;;;;;;;0.17;0.17;;;6.80;99.90;;;;;;5006165;28;20034;-68
2021/01/21 04:25:30;;;;;;;0.52;0.45;;;6.80;99.90;;;;;;5005641;28;20060;-69
2021/01/21 04:27:56;;;;;;;1.00;0.30;;;6.70;99.90;;;;;;5011314;28;20053;-69
2021/01/21 04:30:22;;;;;;;12.43;0.63;;;6.70;99.90;;;;;;4995834;28;20041;-69
2021/01/21 04:32:47;;;;;;;2.63;2.42;;;6.70;99.90;;;;;;5004583;28;20092;-69
2021/01/21 04:35:13;;;;;;;0.10;0.10;;;6.70;99.90;;;;;;4999028;28;20034;-69
2021/01/21 04:37:39;;;;;;;0.30;0.30;;;6.80;99.90;;;;;;5009357;28;20045;-70
2021/01/21 04:40:06;;;;;;;0.37;0.30;;;6.80;99.90;;;;;;5009456;28;20026;-69
2021/01/21 04:42:33;;;;;;;0.10;0.10;;;6.80;99.90;;;;;;5012426;28;20417;-69
2021/01/21 04:45:00;;;;;;;1.75;0.88;;;6.80;99.90;;;;;;5012453;28;20029;-69
2021/01/21 04:47:28;;;;;;;0.20;0.20;;;6.90;99.90;;;;;;5013836;28;20034;-70
2021/01/21 04:49:56;;;;;;;0.30;0.30;;;6.90;99.90;;;;;;5016406;28;20042;-70
2021/01/21 04:52:22;;;;;;;0.05;0.05;;;6.80;99.90;;;;;;5014447;28;20313;-70
2021/01/21 04:54:54;;;;;;;4.38;0.43;;;6.80;99.90;;;;;;5010264;28;20026;-70
2021/01/21 04:57:37;;;;;;;0.20;0.20;;;6.80;99.90;;;;;;5005286;28;20022;-72
2021/01/21 05:00:04;;;;;;;1.55;0.68;;;6.80;99.90;;;;;;5001671;28;20069;-69
2021/01/21 05:02:29;;;;;;;;;;;6.80;99.90;;;;;;5005249;28;20118;-69
2021/01/21 05:04:55;;;;;;;0.65;0.65;;;6.80;99.90;;;;;;5026905;28;20319;-69
2021/01/21 05:07:21;;;;;;;0.43;0.43;;;6.80;99.90;;;;;;5027285;28;20034;-69
2021/01/21 05:09:47;;;;;;;0.73;0.73;;;6.80;99.90;;;;;;5035382;28;20022;-69
2021/01/21 05:12:13;;;;;;;1.65;0.93;;;6.70;99.90;;;;;;5013904;28;20057;-69
2021/01/21 05:14:39;;;;;;;0.07;0.07;;;6.80;99.90;;;;;;5007016;28;20093;-71
2021/01/21 05:17:05;;;;;;;0.43;0.43;;;6.70;99.90;;;;;;5036238;28;20262;-70
2021/01/21 05:19:32;;;;;;;15.52;1.17;;;6.70;99.90;;;;;;5028798;28;20014;-69
2021/01/21 05:22:00;;;;;;;2.17;0.70;;;6.80;99.90;;;;;;5020111;28;20032;-70
2021/01/21 05:24:26;;;;;;;1.08;0.35;;;6.70;99.90;;;;;;5007039;28;20030;-69
2021/01/21 05:26:54;;;;;;;0.20;0.20;;;6.60;99.90;;;;;;5013169;28;20022;-69
2021/01/21 05:29:20;;;;;;;1.98;0.35;;;6.60;99.90;;;;;;5017406;28;20075;-68
2021/01/21 05:31:47;;;;;;;0.50;0.50;;;6.40;99.90;;;;;;5016751;28;20334;-69
2021/01/21 05:34:18;;;;;;;;;;;6.20;99.90;;;;;;5013257;28;20065;-69
2021/01/21 05:36:46;;;;;;;7.97;0.90;;;6.10;99.90;;;;;;5009998;28;20296;-69
2021/01/21 05:39:12;;;;;;;1.95;0.50;;;5.90;99.90;;;;;;5004964;28;20022;-69
2021/01/21 05:41:38;;;;;;;3.35;0.75;;;5.90;99.90;;;;;;5013900;28;20083;-68
2021/01/21 05:44:06;;;;;;;0.88;0.68;;;5.90;99.90;;;;;;5010540;28;20030;-69
2021/01/21 05:46:33;;;;;;;1.23;0.43;;;5.80;99.90;;;;;;5010292;28;20443;-69
2021/01/21 05:49:00;;;;;;;0.20;0.20;;;5.90;99.90;;;;;;4996933;28;20046;-69
2021/01/21 05:51:27;;;;;;;0.10;0.10;;;5.90;99.90;;;;;;5003711;28;20040;-69
2021/01/21 05:53:54;;;;;;;2.83;0.52;;;5.90;99.90;;;;;;5005554;28;20367;-69
2021/01/21 05:56:21;;;;;;;9.63;0.20;;;5.90;99.90;;;;;;5015346;28;20109;-70
2021/01/21 05:58:50;;;;;;;0.00;0.00;;;5.90;99.90;;;;;;5011378;28;20042;-69
2021/01/21 06:01:16;;;;;;;0.20;0.20;;;5.90;99.90;;;;;;5013745;28;20518;-70
2021/01/21 06:03:43;;;;;;;0.00;0.00;;;5.90;99.90;;;;;;5022414;28;20104;-70
2021/01/21 06:06:10;;;;;;;;;;;5.90;99.90;;;;;;5019058;28;20294;-69
2021/01/21 06:08:43;;;;;;;0.10;0.10;;;5.80;99.90;;;;;;5026213;28;19916;-69
2021/01/21 06:11:11;;;;;;;0.10;0.10;;;5.80;99.90;;;;;;5023148;28;20019;-70
2021/01/21 06:13:46;;;;;;;0.40;0.30;;;5.70;99.90;;;;;;5016121;28;20026;-69
2021/01/21 06:16:12;;;;;;;0.30;0.30;;;5.70;99.90;;;;;;5013222;28;20056;-70
2021/01/21 06:18:37;;;;;;;0.00;0.00;;;5.70;99.90;;;;;;5019987;28;20029;-69
2021/01/21 06:21:04;;;;;;;0.22;0.22;;;5.70;99.90;;;;;;5017439;28;20364;-70
2021/01/21 06:23:34;;;;;;;0.00;0.00;;;5.80;99.90;;;;;;5015049;28;20376;-69
2021/01/21 06:26:00;;;;;;;0.30;0.30;;;5.80;99.90;;;;;;5018008;28;20054;-69
2021/01/21 06:28:27;;;;;;;0.15;0.15;;;5.80;99.90;;;;;;5013279;28;20092;-69
2021/01/21 06:30:57;;;;;;;0.25;0.25;;;5.80;99.90;;;;;;5013526;28;20369;-70
2021/01/21 06:33:26;;;;;;;1.52;0.95;;;5.80;99.90;;;;;;5014881;28;20034;-69
2021/01/21 06:35:59;;;;;;;0.20;0.20;;;5.80;99.90;;;;;;5008421;28;20385;-69
2021/01/21 06:38:32;;;;;;;0.20;0.20;;;5.80;99.90;;;;;;5022285;28;20018;-69
2021/01/21 06:41:01;;;;;;;0.50;0.35;;;5.80;99.90;;;;;;5013553;28;20401;-69
2021/01/21 06:43:34;;;;;;;0.17;0.17;;;5.70;99.90;;;;;;5010135;28;20026;-69
2021/01/21 06:46:01;;;;;;;0.25;0.25;;;5.70;99.90;;;;;;5019205;28;20103;-69
2021/01/21 06:48:28;;;;;;;0.25;0.25;;;5.70;99.90;;;;;;5010121;28;20041;-69
2021/01/21 06:50:54;;;;;;;2.63;0.75;;;5.70;99.90;;;;;;4998159;28;20099;-69
2021/01/21 06:53:21;;;;;;;0.00;0.00;;;5.60;99.90;;;;;;5006649;28;20034;-69
2021/01/21 06:55:48;;;;;;;1.52;1.17;;;5.50;99.90;;;;;;5002516;28;20061;-70
2021/01/21 06:58:34;;;;;;;0.75;0.75;;;5.50;99.90;;;;;;5005295;28;20038;-69
2021/01/21 07:01:00;;;;;;;2.88;0.70;;;5.40;99.90;;;;;;5003633;28;20165;-69
2021/01/21 07:03:30;;;;;;;0.17;0.17;;;5.40;99.90;;;;;;5011053;28;20475;-69
2021/01/21 07:06:00;;;;;;;0.10;0.10;;;5.30;99.90;;;;;;5013316;28;20030;-70
2021/01/21 07:08:27;;;;;;;1.65;1.05;;;5.30;99.90;;;;;;5027897;28;20053;-69
2021/01/21 07:11:00;;;;;;;0.32;0.32;;;5.20;99.90;;;;;;5014206;28;20421;-69
2021/01/21 07:13:29;;;;;;;0.10;0.10;;;5.20;99.90;;;;;;5019872;28;20034;-69
2021/01/21 07:16:03;;;;;;;4.07;0.32;;;5.10;99.90;;;;;;5015596;28;20076;-69
2021/01/21 07:18:33;;;;;;;0.15;0.15;;;5.10;99.90;;;;;;5027839;28;20030;-69
2021/01/21 07:20:59;;;;;;;2.72;0.85;;;5.00;99.90;;;;;;5007935;28;20022;-70
2021/01/21 07:23:57;;;;;;;0.35;0.35;;;5.00;99.90;;;;;;5024771;28;20037;-69
2021/01/21 07:26:29;;;;;;;0.82;0.80;;;4.90;99.90;;;;;;5023202;28;20049;-69
2021/01/21 07:28:54;;;;;;;0.50;0.50;;;4.90;99.90;;;;;;5019443;28;20117;-69
2021/01/21 07:31:21;;;;;;;0.90;0.90;;;4.90;99.90;;;;;;5024532;28;20112;-69
2021/01/21 07:33:46;;;;;;;1.08;0.98;;;4.90;99.90;;;;;;5016993;28;20037;-69
2021/01/21 07:36:30;;;;;;;0.30;0.30;;;4.80;99.90;;;;;;5025119;28;20029;-69
2021/01/21 07:38:56;;;;;;;2.50;1.02;;;4.80;99.90;;;;;;5017283;28;20066;-69
2021/01/21 07:41:40;;;;;;;0.00;0.00;;;4.80;99.90;;;;;;5031956;28;20052;-69
2021/01/21 07:44:06;;;;;;;0.68;0.60;;;4.70;99.90;;;;;;5006745;28;20092;-68
2021/01/21 07:46:32;;;;;;;0.47;0.47;;;4.70;99.90;;;;;;5013879;28;20030;-68
2021/01/21 07:49:26;;;;;;;0.10;0.10;;;4.70;99.90;;;;;;5016610;28;20060;-70
2021/01/21 07:52:02;;;;;;;0.20;0.20;;;4.70;99.90;;;;;;5030912;28;20038;-69
2021/01/21 07:54:29;;;;;;;9.60;0.95;;;4.70;99.90;;;;;;5034432;28;20025;-69
2021/01/21 07:56:55;;;;;;;1.10;1.02;;;4.70;99.90;;;;;;5026103;28;20037;-69
2021/01/21 07:59:21;;;;;;;0.43;0.43;;;4.70;99.90;;;;;;5030825;28;20029;-69
2021/01/21 08:02:00;;;;;;;0.13;0.13;;;4.80;99.90;;;;;;5034114;28;20685;-68
2021/01/21 08:04:26;;;;;;;0.10;0.10;;;4.80;99.90;;;;;;5047332;28;20036;-69
2021/01/21 08:06:57;;;;;;;0.20;0.20;;;4.80;99.90;;;;;;5041598;28;20021;-68
2021/01/21 08:09:24;;;;;;;2.92;0.25;;;4.80;99.90;;;;;;5038644;28;20324;-69
2021/01/21 08:11:51;;;;;;;1.05;0.38;;;4.80;99.90;;;;;;5034286;28;20049;-69
2021/01/21 08:14:17;;;;;;;1.20;1.10;;;4.90;99.90;;;;;;5036430;28;20032;-69
2021/01/21 08:16:45;;;;;;;0.20;0.20;;;4.90;99.90;;;;;;5032653;28;20375;-70
2021/01/21 08:19:11;;;;;;;1.55;0.38;;;4.90;99.90;;;;;;5041199;28;20030;-69
2021/01/21 08:21:38;;;;;;;0.30;0.30;;;5.00;99.90;;;;;;5039566;28;20432;-69
2021/01/21 08:24:08;;;;;;;0.75;0.55;;;5.00;99.90;;;;;;5047312;28;20055;-69
2021/01/21 08:26:35;;;;;;;0.50;0.50;;;5.00;99.90;;;;;;5041590;28;20032;-69
2021/01/21 08:29:02;;;;;;;0.30;0.30;;;5.10;99.90;;;;;;5040407;28;20036;-68
2021/01/21 08:31:40;;;;;;;6.97;0.57;;;5.10;99.90;;;;;;5006558;28;20037;-70
2021/01/21 08:34:15;;;;;;;0.85;0.40;;;5.10;99.90;;;;;;5036728;28;20040;-69
2021/01/21 08:36:42;;;;;;;0.10;0.10;;;5.10;99.90;;;;;;5032743;28;20026;-69
2021/01/21 08:39:10;;;;;;;0.65;0.65;;;5.20;99.90;;;;;;5029959;28;20060;-69
2021/01/21 08:41:36;;;;;;;1.35;1.20;;;5.20;99.90;;;;;;5029955;28;20105;-69
2021/01/21 08:44:03;;;;;;;0.73;0.73;;;5.20;99.90;;;;;;5030863;28;20123;-69
2021/01/21 08:46:29;;;;;;;2.22;0.60;;;5.20;99.90;;;;;;5030318;28;20405;-69
2021/01/21 08:48:55;;;;;;;1.67;1.00;;;5.20;99.90;;;;;;5029851;28;20152;-69
2021/01/21 08:51:37;;;;;;;0.20;0.20;;;5.20;99.90;;;;;;5032808;28;20428;-69
2021/01/21 08:54:20;;;;;;;5.95;1.17;;;5.20;99.90;;;;;;5031572;28;20056;-69
2021/01/21 08:57:07;;;;;;;0.10;0.10;;;5.20;99.90;;;;;;5034699;28;20481;-69
2021/01/21 08:59:33;;;;;;;0.47;0.47;;;5.20;99.90;;;;;;5046775;28;20036;-69
2021/01/21 09:01:59;;;;;;;1.08;0.70;;;5.20;99.90;;;;;;5031769;28;20337;-68
2021/01/21 09:04:35;;;;;;;0.20;0.20;;;5.20;99.90;;;;;;5036696;28;20033;-70
2021/01/21 09:07:01;;;;;;;0.63;0.63;;;5.20;99.90;;;;;;5037399;28;20115;-69
2021/01/21 09:09:34;;;;;;;0.10;0.10;;;5.30;99.90;;;;;;5034934;28;20168;-70
2021/01/21 09:12:23;;;;;;;0.50;0.50;;;5.30;99.90;;;;;;5035656;28;20033;-68
2021/01/21 09:15:02;;;;;;;5.72;1.00;;;5.30;99.90;;;;;;5032948;28;20368;-68
2021/01/21 09:17:30;;;;;;;0.17;0.17;;;5.30;99.90;;;;;;5030509;28;20026;-70
2021/01/21 09:19:55;;;;;;;0.43;0.43;;;5.40;99.90;;;;;;5035754;28;20032;-69
2021/01/21 09:22:27;;;;;;;0.10;0.10;;;5.40;99.90;;;;;;5038617;28;20032;-69
2021/01/21 09:25:05;;;;;;;0.43;0.15;;;5.50;99.90;;;;;;5037767;28;20022;-69
2021/01/21 09:27:33;;;;;;;1.55;1.35;;;5.50;99.90;;;;;;5038711;28;20029;-69
2021/01/21 09:30:04;;;;;;;0.65;0.43;;;5.60;99.90;;;;;;5033665;28;20037;-69
2021/01/21 09:32:34;;;;;;;2.05;0.95;;;5.60;99.90;;;;;;5022770;28;20166;-69
2021/01/21 09:35:09;;;;;;;0.50;0.50;;;5.60;99.90;;;;;;5029325;28;20101;-70
2021/01/21 09:37:40;;;;;;;0.30;0.30;;;5.70;99.90;;;;;;5038034;28;20017;-70
2021/01/21 09:40:09;;;;;;;1.35;0.63;;;5.70;99.90;;;;;;5023930;28;20086;-70
2021/01/21 09:42:35;;;;;;;2.53;0.50;;;5.80;99.90;;;;;;5029384;28;20071;-69
2021/01/21 09:45:01;;;;;;;0.10;0.10;;;5.90;99.90;;;;;;5034976;28;20325;-70
2021/01/21 09:47:27;;;;;;;5.80;1.70;;;6.00;99.90;;;;;;5021539;28;20037;-70
2021/01/21 09:49:52;;;;;;;0.37;0.37;;;6.00;99.90;;;;;;5032583;28;20056;-69
2021/01/21 09:52:19;;;;;;;0.70;0.70;;;6.10;99.90;;;;;;5034219;28;20409;-69
2021/01/21 09:54:45;;;;;;;0.30;0.30;;;6.20;99.90;;;;;;5037617;28;20025;-69
2021/01/21 09:57:11;;;;;;;2.40;0.33;;;6.30;99.90;;;;;;5027579;28;20021;-70
2021/01/21 09:59:37;;;;;;;0.45;0.45;;;6.50;99.90;;;;;;5038987;28;20329;-68
2021/01/21 10:02:04;;;;;;;2.53;1.63;;;6.70;99.90;;;;;;5046930;28;20037;-70
2021/01/21 10:04:30;;;;;;;0.73;0.50;;;6.70;99.90;;;;;;5040527;28;20044;-70
2021/01/21 10:06:56;;;;;;;2.57;1.33;;;6.60;99.90;;;;;;5043418;28;20411;-70
2021/01/21 10:09:22;;;;;;;9.73;0.90;;;6.50;99.90;;;;;;5041195;28;20034;-70
2021/01/21 10:11:48;;;;;;;0.00;0.00;;;6.50;99.90;;;;;;5047852;28;20336;-69
2021/01/21 10:14:14;;;;;;;2.00;0.30;;;6.60;99.90;;;;;;5044148;28;20027;-71
2021/01/21 10:16:39;;;;;;;0.00;0.00;;;6.80;99.90;;;;;;5038566;28;20032;-69
2021/01/21 10:19:06;;;;;;;0.25;0.25;;;6.80;99.90;;;;;;5033532;28;20024;-70
2021/01/21 10:21:32;;;;;;;;;;;6.80;99.90;;;;;;5042742;28;20420;-69
2021/01/21 10:23:58;;;;;;;5.30;1.03;;;6.90;99.90;;;;;;5041606;28;19919;-69
2021/01/21 10:26:23;;;;;;;0.10;0.10;;;6.90;99.90;;;;;;5049701;28;20049;-70
2021/01/21 10:28:49;;;;;;;0.47;0.15;;;6.90;99.90;;;;;;5048033;28;20024;-68
2021/01/21 10:31:15;;;;;;;1.07;0.97;;;6.90;99.90;;;;;;5047764;28;20139;-69
2021/01/21 10:33:43;;;;;;;0.30;0.30;;;6.80;99.90;;;;;;5041755;28;20029;-70
2021/01/21 10:36:09;;;;;;;0.32;0.32;;;6.80;99.90;;;;;;5032668;28;20095;-70
2021/01/21 10:38:36;;;;;;;0.00;0.00;;;6.90;99.90;;;;;;5034030;28;20040;-70
2021/01/21 10:41:01;;;;;;;0.52;0.52;;;7.00;99.90;;;;;;5030902;28;20108;-70
2021/01/21 10:43:27;;;;;;;0.20;0.20;;;7.00;99.90;;;;;;5034777;28;20114;-70
2021/01/21 10:45:53;;;;;;;0.20;0.20;;;7.00;99.90;;;;;;5033999;28;20037;-70
2021/01/21 10:48:18;;;;;;;0.20;0.20;;;7.00;99.90;;;;;;5043582;28;20041;-70
2021/01/21 10:50:44;;;;;;;0.83;0.43;;;7.00;99.90;;;;;;5048693;28;20099;-70
2021/01/21 10:53:10;;;;;;;0.90;0.90;;;7.00;99.90;;;;;;5050538;28;20439;-69
2021/01/21 10:55:36;;;;;;;0.53;0.53;;;7.10;99.90;;;;;;5037735;28;20413;-70
2021/01/21 10:58:04;;;;;;;1.98;0.47;;;7.10;99.90;;;;;;5037386;28;20021;-70
2021/01/21 11:00:29;;;;;;;0.10;0.10;;;7.10;99.90;;;;;;5044334;28;20156;-70
2021/01/21 11:02:55;;;;;;;3.30;0.87;;;7.10;99.90;;;;;;5043739;28;20116;-69
2021/01/21 11:05:20;;;;;;;3.20;0.57;;;7.10;99.90;;;;;;5048259;28;20059;-69
2021/01/21 11:07:46;;;;;;;4.53;1.40;;;7.00;99.90;;;;;;5049737;28;20033;-69
2021/01/21 11:10:13;;;;;;;2.33;1.55;;;6.90;99.90;;;;;;5041954;28;20515;-70
2021/01/21 11:12:39;;;;;;;0.75;0.75;;;6.90;99.90;;;;;;5048688;28;20447;-68
2021/01/21 11:15:06;;;;;;;0.40;0.40;;;6.90;99.90;;;;;;5046612;28;20030;-70
2021/01/21 11:17:31;;;;;;;3.53;0.75;;;6.90;99.90;;;;;;5046747;28;20108;-70
2021/01/21 11:19:57;;;;;;;0.47;0.33;;;6.90;99.90;;;;;;5029018;28;20034;-69
2021/01/21 11:22:24;;;;;;;0.53;0.53;;;6.90;99.90;;;;;;5039168;28;20104;-69
2021/01/21 11:24:51;;;;;;;0.63;0.50;;;6.90;99.90;;;;;;5036874;28;20021;-69
2021/01/21 11:27:17;;;;;;;0.85;0.85;;;7.00;99.90;;;;;;5030281;28;20022;-69
2021/01/21 11:29:42;;;;;;;0.30;0.30;;;7.10;99.90;;;;;;5027879;28;20025;-69
2021/01/21 11:32:08;;;;;;;3.13;1.52;;;7.10;99.90;;;;;;5033790;28;20033;-69
2021/01/21 11:34:34;;;;;;;0.20;0.20;;;7.10;99.90;;;;;;5041785;28;20049;-70
2021/01/21 11:36:59;;;;;;;0.13;0.13;;;7.10;99.90;;;;;;5047037;28;20029;-70
2021/01/21 11:39:25;;;;;;;4.67;1.00;;;7.10;99.90;;;;;;5042958;28;20120;-70
2021/01/21 11:41:51;;;;;;;0.10;0.10;;;7.10;99.90;;;;;;5044195;28;20017;-70
2021/01/21 11:44:17;;;;;;;1.70;0.65;;;7.10;99.90;;;;;;5041009;28;20118;-70
2021/01/21 11:46:42;;;;;;;4.57;0.63;;;7.10;99.90;;;;;;5010425;28;20037;-70
2021/01/21 11:49:08;;;;;;;0.27;0.27;;;7.20;99.90;;;;;;5022860;28;20046;-71
2021/01/21 11:51:34;;;;;;;5.37;0.40;;;7.30;99.90;;;;;;5034866;28;20404;-69
2021/01/21 11:53:59;;;;;;;0.70;0.70;;;7.40;99.90;;;;;;5029063;28;20466;-69
2021/01/21 11:56:25;;;;;;;0.20;0.10;;;7.50;99.90;;;;;;5030718;28;20029;-70
2021/01/21 11:58:51;;;;;;;0.20;0.20;;;7.40;99.90;;;;;;5034290;28;20023;-70
2021/01/21 12:01:16;;;;;;;2.10;1.00;;;7.30;99.90;;;;;;5032770;28;20034;-70
2021/01/21 12:03:42;;;;;;;0.30;0.27;;;7.20;99.90;;;;;;5036009;28;20029;-70
2021/01/21 12:06:08;;;;;;;2.38;1.15;;;7.20;99.90;;;;;;5033040;28;20030;-69
2021/01/21 12:08:35;;;;;;;0.63;0.30;;;7.20;99.90;;;;;;5027679;28;20038;-70
2021/01/21 12:11:01;;;;;;;0.82;0.63;;;7.20;99.90;;;;;;5031474;28;20073;-69
2021/01/21 12:13:26;;;;;;;0.20;0.20;;;7.20;99.90;;;;;;5031169;28;20384;-69
2021/01/21 12:15:52;;;;;;;0.00;0.00;;;7.30;99.90;;;;;;5032822;28;20029;-69
2021/01/21 12:18:18;;;;;;;0.20;0.20;;;7.30;99.90;;;;;;5037195;28;20108;-69
2021/01/21 12:20:43;;;;;;;0.40;0.40;;;7.30;99.90;;;;;;5028583;28;20030;-69
2021/01/21 12:23:09;;;;;;;3.77;1.23;;;7.40;99.90;;;;;;5031979;28;20030;-70
2021/01/21 12:25:35;;;;;;;0.45;0.45;;;7.40;99.90;;;;;;5031786;28;20067;-69
2021/01/21 12:28:01;;;;;;;2.80;1.17;;;7.40;99.90;;;;;;5031080;28;20668;-69
2021/01/21 12:30:26;;;;;;;0.83;0.83;;;7.30;99.90;;;;;;5027951;28;20667;-69
2021/01/21 12:32:52;;;;;;;0.25;0.22;;;7.40;99.90;;;;;;5030084;28;20035;-68
2021/01/21 12:35:18;;;;;;;0.10;0.10;;;7.40;99.90;;;;;;5031063;28;20084;-69
2021/01/21 12:37:43;;;;;;;7.80;1.30;;;7.40;99.90;;;;;;5031336;28;20021;-69
2021/01/21 12:40:10;;;;;;;0.15;0.10;;;7.40;99.90;;;;;;5027845;28;20379;-69
2021/01/21 12:42:36;;;;;;;0.60;0.40;;;7.40;99.90;;;;;;5039040;28;20654;-69
2021/01/21 12:45:03;;;;;;;0.30;0.30;;;7.60;99.90;;;;;;5024869;28;20045;-69
2021/01/21 12:47:28;;;;;;;;;;;7.80;99.90;;;;;;5016170;28;20025;-69
2021/01/21 12:49:54;;;;;;;2.43;1.87;;;7.70;99.90;;;;;;5032718;28;19967;-71
2021/01/21 12:52:19;;;;;;;0.40;0.40;;;7.70;99.90;;;;;;5029139;28;20045;-70
2021/01/21 12:54:48;;;;;;;0.43;0.43;;;7.70;99.90;;;;;;5018599;28;20092;-70
2021/01/21 12:57:17;;;;;;;1.75;0.98;;;7.70;99.90;;;;;;5027288;28;20078;-69
2021/01/21 12:59:43;;;;;;;0.20;0.20;;;7.60;99.90;;;;;;5028250;28;20022;-69
2021/01/21 13:02:09;;;;;;;0.57;0.57;;;7.60;99.90;;;;;;5027655;28;20028;-70